createdAt,value
2019-06-07T00:05:48.375Z,98399.00
2019-06-07T00:16:32.351Z,98437.00
2019-06-07T00:27:11.608Z,98443.00
2019-06-07T00:37:54.649Z,98461.00
2019-06-07T00:48:32.957Z,98449.00
2019-06-07T00:59:11.576Z,98487.00
2019-06-07T01:09:51.541Z,98520.00
2019-06-07T01:20:37.526Z,98511.00
2019-06-07T01:31:23.006Z,98514.00
2019-06-07T01:42:03.563Z,98504.00
2019-06-07T01:52:46.533Z,98486.00
2019-06-07T02:03:33.333Z,98476.00
2019-06-07T02:14:12.839Z,98496.00
2019-06-07T02:25:34.512Z,98480.00
2019-06-07T02:35:40.154Z,98446.00
2019-06-07T02:46:25.522Z,98489.00
2019-06-07T02:56:58.724Z,98507.00
2019-06-07T03:07:44.159Z,98502.00
2019-06-07T03:18:29.035Z,98542.00
2019-06-07T03:29:11.490Z,98537.00
2019-06-07T03:39:55.837Z,98550.00
2019-06-07T03:50:42.170Z,98511.00
2019-06-07T04:01:16.794Z,98475.00
2019-06-07T04:12:01.107Z,98412.00
2019-06-07T04:22:42.757Z,98370.00
2019-06-07T04:33:26.767Z,98215.00
2019-06-07T04:44:13.672Z,97919.00
2019-06-07T04:54:57.752Z,97424.00
2019-06-07T05:05:45.911Z,97079.00
2019-06-07T05:16:30.651Z,97018.00
2019-06-07T05:27:14.893Z,96926.00
2019-06-07T05:37:56.660Z,96847.00
2019-06-07T05:48:43.897Z,96989.00
2019-06-07T05:59:25.667Z,96835.00
2019-06-07T06:10:10.904Z,96729.00
2019-06-07T06:21:15.691Z,96815.00
2019-06-07T06:31:38.008Z,97041.00
2019-06-07T06:42:19.582Z,96640.00
2019-06-07T06:53:03.991Z,96346.00
2019-06-07T07:04:09.197Z,96540.00
2019-06-07T07:14:31.120Z,96566.00
2019-06-07T07:25:10.606Z,96973.00
2019-06-07T07:36:15.700Z,97172.00
2019-06-07T07:46:36.040Z,97207.00
2019-06-07T07:57:13.698Z,97192.00
2019-06-07T08:08:01.475Z,97166.00
2019-06-07T08:18:42.037Z,97091.00
2019-06-07T08:29:25.891Z,96951.00
2019-06-07T08:40:11.142Z,96887.00
2019-06-07T08:50:55.411Z,96883.00
2019-06-07T09:01:39.145Z,96805.00
2019-06-07T09:12:19.888Z,96744.00
2019-06-07T09:22:59.047Z,96649.00
2019-06-07T09:33:36.913Z,96514.00
2019-06-07T09:44:24.747Z,96463.00
2019-06-07T09:55:20.617Z,96401.00
2019-06-07T10:05:25.750Z,96336.00
2019-06-07T10:16:12.742Z,96202.00
2019-06-07T10:26:54.877Z,96089.00
2019-06-07T10:37:31.782Z,96015.00
2019-06-07T10:48:16.144Z,95964.00
2019-06-07T10:58:58.759Z,95937.00
2019-06-07T11:09:42.936Z,95802.00
2019-06-07T11:20:27.792Z,95618.00
2019-06-07T11:31:13.328Z,95717.00
2019-06-07T11:41:51.248Z,95887.00
2019-06-07T11:52:35.008Z,95911.00
2019-06-07T12:03:11.467Z,95825.00
2019-06-07T12:13:54.938Z,95905.00
2019-06-07T12:24:30.901Z,95841.00
2019-06-07T12:35:15.661Z,95730.00
2019-06-07T12:45:51.914Z,95703.00
2019-06-07T12:56:35.295Z,95725.00
2019-06-07T13:07:22.443Z,95653.00
2019-06-07T13:18:05.058Z,95614.00
2019-06-07T13:28:51.203Z,95439.00
2019-06-07T13:39:34.193Z,95317.00
2019-06-07T13:50:12.073Z,95237.00
2019-06-07T14:00:54.308Z,95201.00
2019-06-07T14:11:49.601Z,95278.00
2019-06-07T14:22:11.862Z,95216.00
2019-06-07T14:32:47.963Z,95412.00
2019-06-07T14:43:21.323Z,95452.00
2019-06-07T14:54:03.989Z,95433.00
2019-06-07T15:04:42.873Z,95402.00
2019-06-07T15:15:18.128Z,95441.00
2019-06-07T15:25:55.160Z,95503.00
2019-06-07T15:36:36.445Z,95312.00
2019-06-07T15:47:18.010Z,95355.00
2019-06-07T15:57:58.886Z,95464.00
2019-06-07T16:08:36.312Z,95758.00
2019-06-07T16:19:11.252Z,96090.00
2019-06-07T16:29:48.206Z,96374.00
2019-06-07T16:40:26.264Z,96552.00
2019-06-07T16:51:05.012Z,96766.00
2019-06-07T17:01:46.196Z,96883.00
2019-06-07T17:12:25.924Z,96961.00
2019-06-07T17:22:58.544Z,96932.00
2019-06-07T17:33:36.978Z,96982.00
2019-06-07T17:44:11.026Z,97059.00
2019-06-07T17:54:50.074Z,97092.00
2019-06-07T18:05:24.039Z,97073.00
2019-06-07T18:16:03.126Z,97086.00
2019-06-07T18:26:41.086Z,97082.00
2019-06-07T18:37:21.003Z,97102.00
2019-06-07T18:48:02.446Z,97048.00
2019-06-07T18:58:41.674Z,97010.00
2019-06-07T19:09:20.298Z,97008.00
2019-06-07T19:20:00.718Z,97146.00
2019-06-07T19:30:38.131Z,97129.00
2019-06-07T19:41:19.972Z,97222.00
2019-06-07T19:51:54.970Z,97281.00
2019-06-07T20:02:34.270Z,97292.00
2019-06-07T20:13:18.908Z,97284.00
2019-06-07T20:23:56.765Z,97308.00
2019-06-07T20:34:44.436Z,97367.00
2019-06-07T20:45:13.033Z,97403.00
2019-06-07T20:55:51.342Z,97429.00
2019-06-07T21:06:30.508Z,97446.00
2019-06-07T21:17:08.316Z,97452.00
2019-06-07T21:27:41.348Z,97408.00
2019-06-07T21:38:18.437Z,97435.00
2019-06-07T21:48:56.277Z,97426.00
2019-06-07T21:59:36.359Z,97433.00
2019-06-07T22:10:17.128Z,97403.00
2019-06-07T22:20:51.343Z,97405.00
2019-06-07T22:31:22.395Z,97417.00
2019-06-07T22:41:57.371Z,97463.00
2019-06-07T22:52:36.547Z,97461.00
2019-06-07T23:03:16.786Z,97504.00
2019-06-07T23:13:59.145Z,97492.00
2019-06-07T23:24:39.332Z,97524.00
2019-06-07T23:35:14.810Z,97477.00
2019-06-07T23:45:53.576Z,97524.00
2019-06-07T23:56:35.501Z,97479.00
